Time;durP1;ratioP1;P1;durP2;ratioP2;P2;SDS_P1;SDS_P2;PMS_P1;PMS_P2;Temp;Humidity;BMP_temperature;BMP_pressure;BME280_temperature;BME280_humidity;BME280_pressure;Samples;Min_cycle;Max_cycle;Signal;HPM_P1;HPM_P2
2022/05/17 00:01:22;;;;;;;8.05;4.38;;;16.80;99.90;;;;;;5072220;28;20377;-49
2022/05/17 00:03:48;;;;;;;10.85;5.13;;;16.80;99.90;;;;;;5072161;28;20099;-49
2022/05/17 00:06:13;;;;;;;11.05;6.38;;;16.80;99.90;;;;;;5072234;28;20096;-46
2022/05/17 00:08:39;;;;;;;9.93;6.38;;;16.80;99.90;;;;;;5071689;28;20029;-49
2022/05/17 00:11:06;;;;;;;7.90;6.30;;;16.80;99.90;;;;;;5071939;28;20033;-46
2022/05/17 00:13:32;;;;;;;12.00;6.60;;;16.80;99.90;;;;;;5072119;28;20051;-49
2022/05/17 00:15:59;;;;;;;10.82;6.57;;;16.70;99.90;;;;;;5054015;28;20024;-47
2022/05/17 00:18:25;;;;;;;8.13;5.93;;;16.70;99.90;;;;;;5071618;28;20059;-46
2022/05/17 00:20:51;;;;;;;9.93;5.80;;;16.70;99.90;;;;;;5071913;28;20488;-48
2022/05/17 00:23:17;;;;;;;8.27;5.43;;;16.70;99.90;;;;;;5071726;28;20029;-45
2022/05/17 00:25:47;;;;;;;7.50;5.47;;;16.70;99.90;;;;;;5071293;28;20024;-45
2022/05/17 00:28:19;;;;;;;10.88;5.78;;;16.60;99.90;;;;;;5070895;28;20028;-44
2022/05/17 00:30:45;;;;;;;7.45;5.68;;;16.60;99.90;;;;;;5071930;28;20025;-46
2022/05/17 00:33:12;;;;;;;10.23;5.53;;;16.60;99.90;;;;;;5071662;28;20036;-46
2022/05/17 00:35:38;;;;;;;9.98;6.03;;;16.60;99.90;;;;;;5071469;28;20028;-46
2022/05/17 00:38:04;;;;;;;11.82;6.97;;;16.50;99.90;;;;;;5071419;28;20044;-45
2022/05/17 00:40:30;;;;;;;6.97;6.28;;;16.50;99.90;;;;;;5071579;28;20079;-45
2022/05/17 00:42:55;;;;;;;8.13;6.22;;;16.50;99.90;;;;;;5071662;28;20492;-50
2022/05/17 00:45:21;;;;;;;8.45;4.47;;;16.50;99.90;;;;;;5071678;28;20071;-45
2022/05/17 00:47:58;;;;;;;5.70;4.95;;;16.40;99.90;;;;;;5071309;28;20050;-46
2022/05/17 00:50:43;;;;;;;7.82;5.28;;;16.40;99.90;;;;;;5071484;28;20024;-45
2022/05/17 00:53:26;;;;;;;8.63;4.78;;;16.30;99.90;;;;;;5071496;28;20039;-43
2022/05/17 00:55:56;;;;;;;10.05;4.40;;;16.20;99.90;;;;;;5071251;28;20032;-45
2022/05/17 00:58:26;;;;;;;10.15;5.20;;;16.20;99.90;;;;;;5070976;28;20056;-48
2022/05/17 01:01:08;;;;;;;10.00;5.45;;;16.20;99.90;;;;;;5071774;28;20050;-46
2022/05/17 01:03:47;;;;;;;5.50;4.55;;;16.20;99.90;;;;;;5071357;28;20078;-45
2022/05/17 01:06:14;;;;;;;5.53;5.00;;;16.20;99.90;;;;;;5071474;28;20081;-46
2022/05/17 01:08:40;;;;;;;7.45;5.13;;;16.20;99.90;;;;;;5070989;28;20063;-49
2022/05/17 01:11:05;;;;;;;6.47;4.75;;;16.20;99.90;;;;;;5071270;28;20064;-46
2022/05/17 01:16:16;;;;;;;8.45;5.30;;;16.10;99.90;;;;;;5071388;28;20121;-47
2022/05/17 01:18:42;;;;;;;8.27;4.80;;;16.10;99.90;;;;;;5070812;28;20484;-45
2022/05/17 01:21:10;;;;;;;9.32;5.40;;;16.10;99.90;;;;;;5071211;28;20020;-50
2022/05/17 01:23:35;;;;;;;5.38;4.88;;;16.20;99.90;;;;;;5071470;28;20039;-46
2022/05/17 01:26:02;;;;;;;8.65;5.63;;;16.10;99.90;;;;;;5071100;28;20028;-49
2022/05/17 01:28:31;;;;;;;10.25;6.32;;;16.10;99.90;;;;;;5070592;28;20024;-45
2022/05/17 01:31:03;;;;;;;8.27;5.82;;;16.10;99.90;;;;;;5071570;28;20035;-43
2022/05/17 01:33:30;;;;;;;6.10;5.50;;;16.10;99.90;;;;;;5071637;28;20020;-49
2022/05/17 01:35:56;;;;;;;10.95;5.20;;;16.10;99.90;;;;;;5071188;28;20020;-44
2022/05/17 01:38:21;;;;;;;8.57;5.78;;;16.10;99.90;;;;;;5073074;28;20487;-45
2022/05/17 01:40:47;;;;;;;8.88;5.38;;;16.00;99.90;;;;;;5074930;28;20392;-45
2022/05/17 01:43:12;;;;;;;11.98;7.47;;;15.90;99.90;;;;;;5074919;28;20492;-45
2022/05/17 01:45:38;;;;;;;8.82;7.22;;;15.90;99.90;;;;;;5056977;28;20032;-47
2022/05/17 01:48:04;;;;;;;12.20;8.95;;;15.90;99.90;;;;;;5074710;28;20397;-47
2022/05/17 01:50:30;;;;;;;13.43;9.15;;;16.00;99.90;;;;;;5074705;28;20028;-48
2022/05/17 01:52:55;;;;;;;14.45;9.13;;;16.00;99.90;;;;;;5074913;28;20099;-48
2022/05/17 01:55:21;;;;;;;11.48;7.20;;;16.00;99.90;;;;;;5056573;28;20606;-48
2022/05/17 01:57:46;;;;;;;9.32;6.90;;;16.00;99.90;;;;;;5074508;28;20029;-47
2022/05/17 02:00:14;;;;;;;8.95;5.93;;;15.90;99.90;;;;;;5074667;28;20491;-48
2022/05/17 02:02:39;;;;;;;8.52;6.68;;;15.90;99.90;;;;;;5074601;28;20020;-48
2022/05/17 02:05:06;;;;;;;5.32;4.82;;;15.80;99.90;;;;;;5074451;28;20027;-45
2022/05/17 02:07:32;;;;;;;7.53;6.20;;;15.80;99.90;;;;;;5074142;28;20484;-50
2022/05/17 02:09:57;;;;;;;11.43;6.43;;;15.70;99.90;;;;;;5074718;28;20032;-45
2022/05/17 02:12:23;;;;;;;12.20;5.85;;;15.70;99.90;;;;;;5074753;28;20031;-48
2022/05/17 02:14:48;;;;;;;9.43;5.75;;;15.60;99.90;;;;;;5075158;28;20381;-45
2022/05/17 02:17:14;;;;;;;13.45;6.28;;;15.60;99.90;;;;;;5074610;28;20259;-50
2022/05/17 02:19:40;;;;;;;8.93;5.93;;;15.60;99.90;;;;;;5074611;28;20017;-45
2022/05/17 02:22:06;;;;;;;9.95;6.68;;;15.60;99.90;;;;;;5074806;28;20111;-47
2022/05/17 02:24:31;;;;;;;17.67;9.10;;;15.60;99.90;;;;;;5074307;28;20445;-47
2022/05/17 02:26:57;;;;;;;14.45;10.15;;;15.60;99.90;;;;;;5074093;28;20032;-48
2022/05/17 02:29:23;;;;;;;13.68;10.20;;;15.60;99.90;;;;;;5073606;28;20040;-48
2022/05/17 02:31:50;;;;;;;14.20;9.35;;;15.60;99.90;;;;;;5096105;22;20272;-45
2022/05/17 02:34:17;;;;;;;9.70;7.93;;;15.60;99.90;;;;;;5073777;28;20107;-48
2022/05/17 02:36:42;;;;;;;11.00;6.35;;;15.60;99.90;;;;;;5072217;28;20407;-45
2022/05/17 02:39:08;;;;;;;7.47;5.78;;;15.50;99.90;;;;;;5072174;28;20023;-49
2022/05/17 02:41:34;;;;;;;10.25;6.20;;;15.50;99.90;;;;;;5073566;28;20024;-52
2022/05/17 02:43:59;;;;;;;11.65;6.82;;;15.50;99.90;;;;;;5073677;28;20042;-43
2022/05/17 02:46:27;;;;;;;7.85;6.35;;;15.40;99.90;;;;;;5073529;28;20020;-47
2022/05/17 02:48:53;;;;;;;10.77;6.03;;;15.50;99.90;;;;;;5072920;28;20028;-48
2022/05/17 02:51:19;;;;;;;6.60;6.00;;;15.40;99.90;;;;;;5073312;28;20029;-49
2022/05/17 02:53:45;;;;;;;10.95;6.20;;;15.40;99.90;;;;;;5073350;28;20482;-45
2022/05/17 02:56:11;;;;;;;8.70;6.40;;;15.40;99.90;;;;;;5071961;28;20035;-42
2022/05/17 02:58:37;;;;;;;6.25;5.43;;;15.40;99.90;;;;;;5073079;28;20025;-46
2022/05/17 03:01:03;;;;;;;11.23;7.63;;;15.40;99.90;;;;;;5073200;28;20408;-48
2022/05/17 03:03:28;;;;;;;7.05;6.35;;;15.40;99.90;;;;;;5073342;28;20515;-46
2022/05/17 03:05:54;;;;;;;7.30;6.60;;;15.30;99.90;;;;;;5073045;28;20279;-45
2022/05/17 03:08:20;;;;;;;9.80;7.85;;;15.30;99.90;;;;;;5073048;28;20020;-41
2022/05/17 03:10:45;;;;;;;7.85;6.97;;;15.30;99.90;;;;;;5073057;28;20039;-48
2022/05/17 03:13:13;;;;;;;9.63;6.72;;;15.20;99.90;;;;;;5071837;28;20059;-47
2022/05/17 03:15:38;;;;;;;9.68;6.57;;;15.20;99.90;;;;;;5072877;28;20024;-47
2022/05/17 03:18:04;;;;;;;8.77;6.60;;;15.10;99.90;;;;;;5072732;28;20478;-42
2022/05/17 03:20:29;;;;;;;8.77;6.95;;;15.00;99.90;;;;;;5072728;28;20468;-48
2022/05/17 03:22:55;;;;;;;8.50;6.68;;;15.10;99.90;;;;;;5071740;28;20459;-45
2022/05/17 03:25:21;;;;;;;9.10;6.82;;;15.00;99.90;;;;;;5072853;28;20039;-48
2022/05/17 03:27:46;;;;;;;7.35;6.65;;;15.00;99.90;;;;;;5072466;28;20032;-48
2022/05/17 03:30:12;;;;;;;9.88;7.00;;;15.00;99.90;;;;;;5072991;28;20472;-42
2022/05/17 03:32:38;;;;;;;9.95;6.80;;;15.00;99.90;;;;;;5072823;28;20090;-43
2022/05/17 03:35:05;;;;;;;9.85;7.35;;;14.90;99.90;;;;;;5072782;28;20032;-46
2022/05/17 03:37:31;;;;;;;11.23;7.63;;;14.90;99.90;;;;;;5072570;28;20020;-46
2022/05/17 03:39:56;;;;;;;11.23;7.28;;;15.00;99.90;;;;;;5072889;28;20031;-44
2022/05/17 03:42:22;;;;;;;8.20;7.10;;;14.90;99.90;;;;;;5071359;28;20077;-50
2022/05/17 03:44:47;;;;;;;13.30;7.13;;;14.90;99.90;;;;;;5072307;28;20025;-47
2022/05/17 03:47:13;;;;;;;9.45;7.55;;;15.00;99.90;;;;;;5072237;28;20063;-52
2022/05/17 03:49:39;;;;;;;14.38;7.18;;;14.90;99.90;;;;;;5072565;28;20052;-51
2022/05/17 03:52:06;;;;;;;8.10;6.90;;;15.00;99.90;;;;;;5072188;28;20499;-46
2022/05/17 03:54:32;;;;;;;10.70;7.72;;;15.00;99.90;;;;;;5072225;28;20021;-48
2022/05/17 03:56:57;;;;;;;10.43;9.38;;;15.00;99.90;;;;;;5071948;28;20453;-50
2022/05/17 03:59:23;;;;;;;10.35;9.32;;;15.00;99.90;;;;;;5072113;28;20028;-47
2022/05/17 04:01:49;;;;;;;15.00;11.20;;;15.00;99.90;;;;;;5071587;28;20025;-45
2022/05/17 04:04:15;;;;;;;13.00;11.30;;;14.90;99.90;;;;;;5072024;28;20571;-48
2022/05/17 04:06:40;;;;;;;15.30;10.55;;;14.90;99.90;;;;;;5071941;28;20024;-42
2022/05/17 04:09:06;;;;;;;13.80;11.43;;;14.80;99.90;;;;;;5070529;28;20024;-46
2022/05/17 04:11:34;;;;;;;16.25;11.45;;;14.80;99.90;;;;;;5072396;28;20064;-49
2022/05/17 04:13:59;;;;;;;11.60;10.40;;;14.80;99.90;;;;;;5072987;28;20541;-46
2022/05/17 04:16:29;;;;;;;11.30;8.70;;;14.80;99.90;;;;;;5071658;28;20068;-49
2022/05/17 04:18:54;;;;;;;10.57;7.55;;;14.80;99.90;;;;;;5071679;28;20021;-49
2022/05/17 04:21:20;;;;;;;9.43;8.02;;;14.80;99.90;;;;;;5071679;28;20499;-46
2022/05/17 04:23:45;;;;;;;12.32;7.57;;;14.80;99.90;;;;;;5071916;28;20050;-47
2022/05/17 04:26:13;;;;;;;12.07;8.15;;;14.90;99.90;;;;;;5072036;28;20483;-47
2022/05/17 04:28:38;;;;;;;10.07;7.55;;;14.90;99.90;;;;;;5071179;28;20100;-41
2022/05/17 04:31:04;;;;;;;8.73;7.07;;;15.00;99.90;;;;;;5071393;28;20448;-45
2022/05/17 04:33:29;;;;;;;10.68;7.68;;;15.10;99.90;;;;;;5071430;28;20041;-48
2022/05/17 04:35:55;;;;;;;13.50;7.72;;;15.20;99.90;;;;;;5071409;28;20438;-45
2022/05/17 04:38:21;;;;;;;13.55;8.02;;;15.30;99.90;;;;;;5071319;28;20020;-41
2022/05/17 04:40:48;;;;;;;8.10;7.28;;;15.30;99.90;;;;;;5071776;28;20494;-48
2022/05/17 04:43:14;;;;;;;8.95;7.47;;;15.40;99.90;;;;;;5071682;28;20017;-52
2022/05/17 04:45:41;;;;;;;12.07;8.23;;;15.40;99.90;;;;;;5071603;28;20032;-51
2022/05/17 04:48:07;;;;;;;8.23;7.28;;;15.40;99.90;;;;;;5071282;28;20060;-47
2022/05/17 04:50:33;;;;;;;8.70;7.90;;;15.50;99.90;;;;;;5071550;28;20059;-49
2022/05/17 04:52:59;;;;;;;11.95;7.60;;;15.50;99.90;;;;;;5071492;28;20028;-48
2022/05/17 04:55:25;;;;;;;12.65;7.90;;;15.60;99.90;;;;;;5071478;28;20035;-49
2022/05/17 04:57:51;;;;;;;10.43;7.72;;;15.60;99.90;;;;;;5071022;28;20080;-52
2022/05/17 05:00:21;;;;;;;32.95;7.97;;;15.60;99.90;;;;;;5071362;28;20107;-49
2022/05/17 05:02:46;;;;;;;12.05;7.50;;;15.70;99.90;;;;;;5071861;28;20032;-51
2022/05/17 05:05:13;;;;;;;9.98;7.80;;;15.80;99.90;;;;;;5071599;28;20408;-47
2022/05/17 05:07:38;;;;;;;8.43;7.43;;;15.90;99.90;;;;;;5071145;28;20033;-47
2022/05/17 05:10:05;;;;;;;8.70;7.10;;;16.00;99.90;;;;;;5071640;28;20052;-47
2022/05/17 05:12:31;;;;;;;10.30;8.38;;;16.10;99.90;;;;;;5073959;28;20060;-49
2022/05/17 05:14:57;;;;;;;12.50;8.43;;;16.30;99.90;;;;;;5075359;28;20034;-42
2022/05/17 05:17:23;;;;;;;12.25;8.73;;;16.60;99.90;;;;;;5075036;28;20032;-49
2022/05/17 05:19:48;;;;;;;11.38;8.55;;;16.80;99.90;;;;;;5075586;28;20427;-47
2022/05/17 05:22:14;;;;;;;12.75;8.25;;;17.00;99.90;;;;;;5075313;28;20365;-49
2022/05/17 05:24:39;;;;;;;9.52;7.60;;;17.10;99.90;;;;;;5075395;28;20075;-45
2022/05/17 05:27:05;;;;;;;9.05;8.13;;;17.20;99.90;;;;;;5074647;28;20032;-47
2022/05/17 05:29:31;;;;;;;11.77;8.05;;;17.10;99.90;;;;;;5075467;28;20442;-47
2022/05/17 05:31:56;;;;;;;9.00;7.95;;;17.10;99.90;;;;;;5075079;28;20047;-46
2022/05/17 05:34:22;;;;;;;9.55;7.75;;;17.10;99.90;;;;;;5075620;28;20111;-49
2022/05/17 05:36:48;;;;;;;7.65;6.85;;;17.20;99.90;;;;;;5075147;28;20125;-47
2022/05/17 05:39:15;;;;;;;11.25;8.57;;;17.20;99.90;;;;;;5074922;28;20021;-45
2022/05/17 05:41:40;;;;;;;9.55;8.55;;;17.20;99.90;;;;;;5074788;28;20036;-50
2022/05/17 05:44:06;;;;;;;9.68;8.05;;;17.20;99.90;;;;;;5074983;28;20028;-50
2022/05/17 05:46:32;;;;;;;10.10;7.72;;;17.30;99.90;;;;;;5074771;28;20092;-48
2022/05/17 05:48:58;;;;;;;9.13;7.00;;;17.30;99.90;;;;;;5074425;28;20074;-49
2022/05/17 05:51:24;;;;;;;10.90;6.50;;;17.30;99.90;;;;;;5074583;28;20024;-45
2022/05/17 05:53:50;;;;;;;6.72;6.13;;;17.40;99.90;;;;;;5074774;28;20105;-46
2022/05/17 05:56:16;;;;;;;13.90;7.80;;;17.60;99.90;;;;;;5074447;28;20052;-48
2022/05/17 05:58:42;;;;;;;7.47;6.75;;;17.60;99.90;;;;;;5074172;28;20020;-44
2022/05/17 06:01:09;;;;;;;9.18;6.95;;;17.80;99.90;;;;;;5074162;28;20074;-47
2022/05/17 06:03:35;;;;;;;9.75;7.28;;;17.90;99.90;;;;;;5074773;28;20025;-45
2022/05/17 06:06:02;;;;;;;15.35;7.63;;;18.10;99.90;;;;;;5074303;28;20450;-45
2022/05/17 06:08:28;;;;;;;9.35;6.90;;;18.30;99.90;;;;;;5072936;28;20103;-42
2022/05/17 06:10:54;;;;;;;7.97;6.68;;;18.30;99.90;;;;;;5074117;28;20132;-44
2022/05/17 06:13:19;;;;;;;7.15;6.45;;;18.20;99.90;;;;;;5074020;28;20032;-41
2022/05/17 06:15:46;;;;;;;9.77;7.57;;;18.20;99.90;;;;;;5074156;28;20086;-48
2022/05/17 06:18:13;;;;;;;10.40;6.85;;;18.30;99.90;;;;;;5074225;28;20632;-45
2022/05/17 06:20:39;;;;;;;11.13;7.07;;;18.40;99.90;;;;;;5074115;28;20434;-45
2022/05/17 06:23:05;;;;;;;9.65;7.10;;;18.50;99.90;;;;;;5073613;28;20504;-48
2022/05/17 06:25:32;;;;;;;12.75;7.80;;;18.60;99.90;;;;;;5074233;28;20032;-46
2022/05/17 06:27:58;;;;;;;13.60;6.75;;;18.60;99.90;;;;;;5073640;28;20108;-45
2022/05/17 06:30:24;;;;;;;9.30;7.35;;;18.70;99.90;;;;;;5073611;28;20467;-45
2022/05/17 06:32:49;;;;;;;9.35;7.25;;;18.80;99.90;;;;;;5072058;28;20404;-46
2022/05/17 06:35:15;;;;;;;7.72;7.03;;;18.90;99.90;;;;;;5070980;28;20068;-50
2022/05/17 06:37:42;;;;;;;8.05;7.18;;;19.10;99.90;;;;;;5073040;28;20045;-43
2022/05/17 06:40:08;;;;;;;9.98;7.60;;;19.20;99.90;;;;;;5072821;28;20016;-50
2022/05/17 06:42:34;;;;;;;10.95;6.88;;;19.10;99.90;;;;;;5073690;28;20024;-52
2022/05/17 06:45:00;;;;;;;9.40;6.85;;;19.10;99.90;;;;;;5073058;28;20049;-51
2022/05/17 06:47:26;;;;;;;9.80;7.03;;;19.20;99.90;;;;;;5073260;28;20468;-48
2022/05/17 06:49:52;;;;;;;9.52;7.35;;;19.30;99.90;;;;;;5073593;28;20060;-44
2022/05/17 06:52:18;;;;;;;6.70;5.72;;;19.40;99.90;;;;;;5073625;28;20380;-49
2022/05/17 06:54:44;;;;;;;6.78;6.10;;;19.50;99.90;;;;;;5073726;28;20020;-48
2022/05/17 06:57:13;;;;;;;9.30;5.95;;;19.80;99.90;;;;;;5072707;28;20518;-49
2022/05/17 06:59:39;;;;;;;9.18;6.43;;;20.20;99.90;;;;;;5073292;28;20023;-46
2022/05/17 07:02:06;;;;;;;11.50;7.22;;;20.40;99.90;;;;;;5073425;28;20032;-44
2022/05/17 07:04:33;;;;;;;15.40;6.30;;;20.60;99.90;;;;;;5073251;28;20025;-47
2022/05/17 07:06:59;;;;;;;9.05;7.15;;;20.60;99.90;;;;;;5072737;28;20033;-48
2022/05/17 07:09:26;;;;;;;9.30;7.55;;;20.50;99.90;;;;;;5073057;28;20032;-47
2022/05/17 07:14:40;;;;;;;11.88;6.43;;;20.20;99.90;;;;;;5068561;28;20411;-47
2022/05/17 07:17:10;;;;;;;9.48;5.65;;;20.30;99.90;;;;;;5072730;28;20036;-50
2022/05/17 07:19:35;;;;;;;9.35;6.35;;;20.30;99.90;;;;;;5070025;28;20511;-49
2022/05/17 07:22:02;;;;;;;7.25;6.55;;;20.40;99.90;;;;;;5053048;28;20029;-54
2022/05/17 07:24:28;;;;;;;11.65;7.32;;;20.30;99.90;;;;;;5069213;28;20362;-43
2022/05/17 07:26:54;;;;;;;9.60;6.47;;;20.30;99.90;;;;;;5052512;28;20086;-49
2022/05/17 07:29:19;;;;;;;8.70;6.25;;;20.20;99.90;;;;;;5060679;28;20035;-50
2022/05/17 07:31:45;;;;;;;7.35;6.22;;;20.30;99.90;;;;;;5072425;28;20047;-50
2022/05/17 07:34:12;;;;;;;6.22;5.68;;;20.50;99.90;;;;;;5072639;28;20033;-46
2022/05/17 07:36:37;;;;;;;12.25;6.22;;;20.80;99.90;;;;;;5071317;28;20397;-50
2022/05/17 07:39:03;;;;;;;6.80;5.65;;;21.10;99.90;;;;;;5072232;28;20035;-48
2022/05/17 07:41:28;;;;;;;6.00;5.50;;;21.50;99.90;;;;;;5073138;28;20376;-46
2022/05/17 07:43:54;;;;;;;6.03;5.13;;;22.10;99.90;;;;;;5072726;28;20029;-49
2022/05/17 07:46:19;;;;;;;5.95;5.30;;;22.80;99.90;;;;;;5072507;28;20484;-47
2022/05/17 07:48:45;;;;;;;5.93;5.32;;;23.40;99.70;;;;;;5072265;28;20031;-47
2022/05/17 07:51:10;;;;;;;8.63;5.55;;;23.80;98.80;;;;;;5072442;28;20519;-52
2022/05/17 07:53:36;;;;;;;5.88;5.05;;;24.20;98.10;;;;;;5072328;28;20040;-43
2022/05/17 07:56:04;;;;;;;8.90;5.32;;;24.20;97.70;;;;;;5071528;28;20066;-50
2022/05/17 07:58:29;;;;;;;8.35;4.72;;;24.10;97.90;;;;;;5071447;28;20021;-45
2022/05/17 08:00:55;;;;;;;4.95;4.53;;;24.40;97.70;;;;;;5071453;28;20038;-50
2022/05/17 08:03:21;;;;;;;8.55;4.72;;;24.50;96.70;;;;;;5071557;28;20490;-45
2022/05/17 08:05:47;;;;;;;7.43;5.35;;;24.40;96.70;;;;;;5060367;28;20027;-49
2022/05/17 08:08:12;;;;;;;8.48;4.43;;;24.40;97.00;;;;;;5072428;28;20064;-45
2022/05/17 08:10:38;;;;;;;7.10;3.70;;;24.30;96.90;;;;;;5061152;28;20032;-43
2022/05/17 08:13:04;;;;;;;6.65;4.35;;;24.20;97.40;;;;;;5054831;28;20086;-47
2022/05/17 08:15:30;;;;;;;8.52;4.80;;;24.30;97.60;;;;;;5071680;28;20037;-44
2022/05/17 08:17:56;;;;;;;5.97;4.45;;;24.60;96.60;;;;;;5071367;28;20024;-49
2022/05/17 08:20:22;;;;;;;12.88;4.28;;;24.90;95.70;;;;;;5069887;28;20031;-47
2022/05/17 08:22:48;;;;;;;9.60;4.45;;;25.30;95.40;;;;;;5057299;28;20024;-51
2022/05/17 08:28:02;;;;;;;7.95;3.65;;;26.60;93.90;;;;;;5071172;28;20569;-41
2022/05/17 08:30:28;;;;;;;8.57;4.10;;;27.10;93.10;;;;;;5069059;28;20017;-45
2022/05/17 08:33:15;;;;;;;9.15;3.70;;;27.30;92.30;;;;;;5076983;22;20126;-45
2022/05/17 08:35:56;;;;;;;5.18;3.55;;;27.30;92.00;;;;;;5038689;28;20035;-48
2022/05/17 08:38:28;;;;;;;9.48;3.83;;;27.20;92.00;;;;;;5032200;28;20378;-47
2022/05/17 08:41:08;;;;;;;6.88;3.58;;;27.10;91.90;;;;;;5042013;28;20067;-45
2022/05/17 08:43:42;;;;;;;4.82;2.85;;;27.10;91.60;;;;;;5032098;28;20101;-45
2022/05/17 08:46:26;;;;;;;7.22;3.53;;;27.20;90.90;;;;;;5041642;28;20392;-45
2022/05/17 08:49:02;;;;;;;5.70;3.92;;;27.40;90.50;;;;;;5049338;28;20032;-47
2022/05/17 08:51:41;;;;;;;13.45;7.15;;;27.80;90.50;;;;;;5050691;28;20032;-47
2022/05/17 08:54:10;;;;;;;76.63;55.17;;;27.90;90.30;;;;;;5051509;28;20082;-48
2022/05/17 08:56:41;;;;;;;10.73;5.80;;;28.00;89.70;;;;;;5036267;28;20051;-48
2022/05/17 08:59:12;;;;;;;9.13;3.47;;;28.00;88.50;;;;;;5052543;28;20025;-47
2022/05/17 09:01:46;;;;;;;3.85;3.25;;;28.00;87.90;;;;;;5053096;28;20044;-48
2022/05/17 09:04:46;;;;;;;8.68;2.90;;;28.00;88.10;;;;;;5036072;28;20032;-47
2022/05/17 09:07:27;;;;;;;3.53;2.00;;;28.00;88.00;;;;;;5043761;28;20298;-47
2022/05/17 09:10:02;;;;;;;7.35;3.22;;;27.80;87.60;;;;;;5051987;28;20037;-44
2022/05/17 09:12:32;;;;;;;;;;;28.00;86.40;;;;;;5051999;28;20035;-49
2022/05/17 09:15:00;;;;;;;4.72;2.35;;;28.20;86.10;;;;;;5051980;28;19995;-46
2022/05/17 09:17:28;;;;;;;6.13;2.05;;;28.40;84.50;;;;;;5051537;28;20017;-47
2022/05/17 09:19:54;;;;;;;8.80;2.70;;;28.30;82.50;;;;;;5051610;28;20024;-44
2022/05/17 09:22:20;;;;;;;5.75;2.92;;;28.00;81.60;;;;;;5051740;28;20017;-48
2022/05/17 09:24:56;;;;;;;5.82;2.65;;;27.70;81.80;;;;;;5050682;28;20068;-46
2022/05/17 09:27:35;;;;;;;3.08;1.60;;;27.50;80.50;;;;;;5051756;28;20028;-47
2022/05/17 09:30:04;;;;;;;3.72;1.65;;;27.20;80.40;;;;;;5051594;28;20403;-45
2022/05/17 09:32:32;;;;;;;6.65;2.08;;;26.90;79.10;;;;;;5050793;28;20029;-46
2022/05/17 09:35:20;;;;;;;5.70;2.03;;;26.90;80.10;;;;;;5051452;28;20021;-47
2022/05/17 09:37:50;;;;;;;5.82;2.05;;;26.80;81.70;;;;;;5049715;28;20029;-45
2022/05/17 09:40:23;;;;;;;3.10;1.55;;;26.70;82.10;;;;;;5049427;28;20025;-48
2022/05/17 09:43:04;;;;;;;6.82;2.38;;;26.80;80.70;;;;;;5051918;28;20029;-45
2022/05/17 09:46:08;;;;;;;7.18;2.03;;;26.70;80.50;;;;;;5051011;28;20083;-47
2022/05/17 09:54:38;;;;;;;3.88;1.55;;;26.90;84.00;;;;;;5051540;28;20036;-47
2022/05/17 09:57:31;;;;;;;3.10;1.70;;;26.80;80.40;;;;;;5050249;28;20493;-46
2022/05/17 10:00:12;;;;;;;4.88;1.65;;;26.60;80.60;;;;;;5046829;28;20109;-46
2022/05/17 10:02:57;;;;;;;3.80;1.83;;;26.60;81.70;;;;;;5047126;28;20108;-46
2022/05/17 10:05:45;;;;;;;8.45;1.73;;;26.50;79.60;;;;;;5056470;28;20059;-50
2022/05/17 10:08:29;;;;;;;6.63;2.17;;;26.50;81.40;;;;;;5054448;28;20516;-50
2022/05/17 10:11:20;;;;;;;4.40;1.35;;;26.40;81.50;;;;;;5056943;28;20033;-46
2022/05/17 10:13:45;;;;;;;3.55;1.35;;;26.50;79.20;;;;;;5057035;28;20024;-51
2022/05/17 10:16:46;;;;;;;6.80;1.65;;;26.30;79.60;;;;;;5057892;28;20121;-52
2022/05/17 10:19:30;;;;;;;5.15;1.85;;;26.30;80.50;;;;;;5034675;28;20033;-47
2022/05/17 10:22:03;;;;;;;5.40;2.13;;;26.20;81.10;;;;;;5057082;28;20043;-48
2022/05/17 10:24:48;;;;;;;2.88;1.45;;;26.30;81.60;;;;;;5056308;28;20025;-49
2022/05/17 10:27:19;;;;;;;4.03;2.00;;;26.10;80.10;;;;;;5054292;28;20021;-53
2022/05/17 10:29:51;;;;;;;3.78;1.63;;;25.80;80.50;;;;;;5053064;28;20509;-47
2022/05/17 10:32:43;;;;;;;4.68;1.35;;;25.70;81.40;;;;;;5054382;28;20466;-47
2022/05/17 10:35:18;;;;;;;4.78;1.80;;;25.70;81.80;;;;;;5056563;28;20302;-49
2022/05/17 10:37:53;;;;;;;5.47;1.40;;;25.70;81.30;;;;;;5055975;28;20017;-51
2022/05/17 10:40:24;;;;;;;2.38;1.23;;;25.80;80.10;;;;;;5055384;28;20021;-48
2022/05/17 10:42:50;;;;;;;4.70;1.33;;;25.70;79.70;;;;;;5055766;28;20049;-54
2022/05/17 10:45:22;;;;;;;5.05;1.70;;;25.70;80.50;;;;;;5056431;28;20121;-46
2022/05/17 10:47:58;;;;;;;4.05;1.67;;;25.70;81.60;;;;;;5052542;28;20029;-45
2022/05/17 10:50:42;;;;;;;3.75;1.52;;;25.70;80.20;;;;;;5054114;28;20035;-46
2022/05/17 10:53:35;;;;;;;4.22;1.80;;;25.80;79.80;;;;;;5054441;28;20029;-44
2022/05/17 10:56:25;;;;;;;11.68;2.20;;;25.70;78.80;;;;;;5054280;28;20025;-48
2022/05/17 10:59:09;;;;;;;9.30;1.70;;;25.70;78.60;;;;;;5052365;28;20518;-50
2022/05/17 11:01:38;;;;;;;3.13;1.40;;;25.50;79.30;;;;;;5053417;28;20029;-50
2022/05/17 11:04:29;;;;;;;6.57;1.40;;;25.40;79.10;;;;;;5055304;28;20017;-47
2022/05/17 11:07:03;;;;;;;3.72;1.60;;;25.30;79.30;;;;;;5054796;28;20475;-51
2022/05/17 11:09:50;;;;;;;3.05;1.42;;;25.10;79.30;;;;;;5059791;28;20032;-48
2022/05/17 11:12:20;;;;;;;2.13;1.30;;;25.10;81.00;;;;;;5058733;28;20097;-47
2022/05/17 11:14:59;;;;;;;2.38;1.35;;;25.00;79.70;;;;;;5060876;28;20028;-50
2022/05/17 11:17:44;;;;;;;4.13;1.00;;;25.00;77.60;;;;;;5061123;28;20027;-50
2022/05/17 11:20:38;;;;;;;4.75;1.35;;;24.80;77.50;;;;;;5060368;28;20017;-52
2022/05/17 11:23:23;;;;;;;1.33;1.00;;;24.80;78.20;;;;;;5059690;28;20480;-46
2022/05/17 11:26:04;;;;;;;3.70;1.13;;;24.80;77.50;;;;;;5060593;28;20059;-52
2022/05/17 11:28:58;;;;;;;3.65;1.30;;;25.00;78.80;;;;;;5059470;28;20032;-51
2022/05/17 11:31:39;;;;;;;4.55;1.48;;;25.00;76.50;;;;;;5051599;28;20040;-45
2022/05/17 11:34:41;;;;;;;2.50;1.20;;;25.10;77.10;;;;;;5050797;28;20036;-45
2022/05/17 11:37:27;;;;;;;4.60;1.95;;;25.00;77.70;;;;;;5013344;28;20041;-44
2022/05/17 11:39:53;;;;;;;5.88;1.50;;;25.00;79.40;;;;;;5037057;28;20473;-49
2022/05/17 11:42:28;;;;;;;3.15;1.23;;;25.00;78.50;;;;;;5041514;28;20033;-49
2022/05/17 11:44:54;;;;;;;7.10;1.80;;;25.00;78.60;;;;;;5046712;28;20021;-48
2022/05/17 11:47:28;;;;;;;4.30;1.30;;;25.00;78.60;;;;;;5057791;28;20056;-49
2022/05/17 11:50:18;;;;;;;2.80;1.10;;;25.00;78.90;;;;;;5056752;28;20075;-48
2022/05/17 11:52:46;;;;;;;2.20;1.00;;;25.00;78.00;;;;;;5061857;28;20021;-51
2022/05/17 11:55:16;;;;;;;4.97;1.63;;;24.90;77.80;;;;;;5063542;28;20035;-48
2022/05/17 11:57:57;;;;;;;7.63;2.00;;;24.90;78.00;;;;;;5065311;28;20013;-46
2022/05/17 12:00:23;;;;;;;10.32;8.38;;;25.00;77.70;;;;;;5065442;28;20044;-49
2022/05/17 12:02:58;;;;;;;4.53;3.13;;;25.00;78.30;;;;;;5065201;28;20032;-50
2022/05/17 12:05:43;;;;;;;1.33;1.20;;;25.10;79.00;;;;;;5064270;28;20028;-49
2022/05/17 12:08:27;;;;;;;;;;;25.20;77.70;;;;;;5066174;28;20021;-48
2022/05/17 12:11:10;;;;;;;4.50;1.08;;;25.20;78.40;;;;;;5065280;28;20007;-50
2022/05/17 12:13:55;;;;;;;5.10;1.33;;;25.30;76.40;;;;;;5065399;28;20040;-50
2022/05/17 12:16:26;;;;;;;4.20;2.53;;;25.40;77.50;;;;;;5063799;28;20021;-52
2022/05/17 12:19:10;;;;;;;1.25;1.10;;;25.40;75.90;;;;;;5065164;28;20448;-50
2022/05/17 12:21:57;;;;;;;4.95;1.95;;;25.40;76.50;;;;;;5063152;28;20385;-48
2022/05/17 12:24:59;;;;;;;2.28;1.42;;;25.50;76.10;;;;;;5063563;28;20059;-47
2022/05/17 12:27:30;;;;;;;3.35;1.50;;;25.50;75.90;;;;;;5065479;28;20488;-47
2022/05/17 12:33:22;;;;;;;3.00;1.00;;;25.50;74.30;;;;;;5062430;28;20094;-46
2022/05/17 12:35:49;;;;;;;4.55;1.02;;;25.50;73.80;;;;;;5062877;28;20096;-47
2022/05/17 12:44:06;;;;;;;1.73;1.00;;;25.70;74.10;;;;;;5064468;28;20416;-47
2022/05/17 12:46:36;;;;;;;2.67;1.17;;;25.70;75.00;;;;;;5063552;28;20032;-48
2022/05/17 12:49:23;;;;;;;4.85;1.20;;;25.80;74.70;;;;;;5064636;28;20040;-51
2022/05/17 12:51:58;;;;;;;1.20;0.80;;;25.90;74.30;;;;;;5064346;28;20032;-53
2022/05/17 12:54:31;;;;;;;2.25;1.15;;;25.90;73.70;;;;;;5065850;28;20028;-48
2022/05/17 12:56:58;;;;;;;1.90;0.98;;;25.90;72.80;;;;;;5055752;28;20025;-50
2022/05/17 12:59:31;;;;;;;2.67;1.00;;;25.90;72.20;;;;;;5062808;28;20056;-47
2022/05/17 13:02:00;;;;;;;1.48;0.70;;;25.80;72.10;;;;;;5063260;28;20432;-48
2022/05/17 13:04:36;;;;;;;1.05;0.70;;;25.70;71.30;;;;;;5062609;28;20017;-47
2022/05/17 13:07:14;;;;;;;2.63;0.88;;;25.70;70.40;;;;;;5060922;28;20366;-45
2022/05/17 13:10:02;;;;;;;0.75;0.70;;;25.90;72.00;;;;;;5062743;28;20033;-51
2022/05/17 13:12:42;;;;;;;2.28;0.82;;;25.90;70.20;;;;;;5063414;28;20064;-51
2022/05/17 13:15:11;;;;;;;3.97;0.73;;;25.90;70.90;;;;;;5063970;28;20096;-46
2022/05/17 13:17:39;;;;;;;1.75;0.90;;;25.80;70.60;;;;;;5042842;28;20030;-50
2022/05/17 13:20:24;;;;;;;4.05;2.95;;;25.60;71.20;;;;;;5044471;28;20100;-51
2022/05/17 13:22:55;;;;;;;6.05;1.70;;;25.50;76.90;;;;;;5063369;28;20021;-49
2022/05/17 13:25:27;;;;;;;2.17;1.55;;;25.50;78.80;;;;;;5062905;28;20021;-45